sensor_id;sensor_type;location;lat;lon;timestamp;pressure;altitude;pressure_sealevel;temperature;humidity
42603;BME280;28233;55.748;48.752;2023-01-15T00:01:24;101044.09;;;-13.40;66.44
42603;BME280;28233;55.748;48.752;2023-01-15T00:03:28;101026.28;;;-13.38;66.88
42603;BME280;28233;55.748;48.752;2023-01-15T00:05:31;101037.56;;;-13.36;66.98
42603;BME280;28233;55.748;48.752;2023-01-15T00:07:33;101029.38;;;-13.33;66.74
42603;BME280;28233;55.748;48.752;2023-01-15T00:09:36;101033.69;;;-13.32;67.01
42603;BME280;28233;55.748;48.752;2023-01-15T00:11:39;101021.56;;;-13.34;67.32
42603;BME280;28233;55.748;48.752;2023-01-15T00:13:42;101028.53;;;-13.33;66.76
42603;BME280;28233;55.748;48.752;2023-01-15T00:15:44;101027.47;;;-13.31;66.62
42603;BME280;28233;55.748;48.752;2023-01-15T00:17:47;101024.81;;;-13.31;66.89
42603;BME280;28233;55.748;48.752;2023-01-15T00:19:50;101015.31;;;-13.33;67.21
42603;BME280;28233;55.748;48.752;2023-01-15T00:21:53;101025.50;;;-13.29;66.89
42603;BME280;28233;55.748;48.752;2023-01-15T00:23:55;101019.53;;;-13.31;66.79
42603;BME280;28233;55.748;48.752;2023-01-15T00:26:18;101018.41;;;-13.28;67.07
42603;BME280;28233;55.748;48.752;2023-01-15T00:28:41;101018.22;;;-13.36;66.87
42603;BME280;28233;55.748;48.752;2023-01-15T00:30:44;101023.00;;;-13.30;67.36
42603;BME280;28233;55.748;48.752;2023-01-15T00:32:47;101012.53;;;-13.32;67.23
42603;BME280;28233;55.748;48.752;2023-01-15T00:34:50;101002.09;;;-13.33;67.52
42603;BME280;28233;55.748;48.752;2023-01-15T00:36:53;101016.28;;;-13.34;67.09
42603;BME280;28233;55.748;48.752;2023-01-15T00:38:56;101015.78;;;-13.28;67.77
42603;BME280;28233;55.748;48.752;2023-01-15T00:40:58;101011.00;;;-13.34;67.24
42603;BME280;28233;55.748;48.752;2023-01-15T00:43:01;101018.66;;;-13.31;67.66
42603;BME280;28233;55.748;48.752;2023-01-15T00:45:05;101027.47;;;-13.31;67.71
42603;BME280;28233;55.748;48.752;2023-01-15T00:47:14;101002.94;;;-13.33;67.59
42603;BME280;28233;55.748;48.752;2023-01-15T00:49:17;101006.41;;;-13.32;67.63
42603;BME280;28233;55.748;48.752;2023-01-15T00:51:20;100994.31;;;-13.35;67.77
42603;BME280;28233;55.748;48.752;2023-01-15T00:53:23;100998.22;;;-13.29;68.12
42603;BME280;28233;55.748;48.752;2023-01-15T00:55:26;101021.06;;;-13.28;67.51
42603;BME280;28233;55.748;48.752;2023-01-15T00:57:29;101002.56;;;-13.28;67.73
42603;BME280;28233;55.748;48.752;2023-01-15T00:59:31;101014.50;;;-13.24;68.04
42603;BME280;28233;55.748;48.752;2023-01-15T01:01:34;101004.63;;;-13.22;67.73
42603;BME280;28233;55.748;48.752;2023-01-15T01:03:37;100994.88;;;-13.22;68.20
42603;BME280;28233;55.748;48.752;2023-01-15T01:05:40;101010.06;;;-13.24;67.96
42603;BME280;28233;55.748;48.752;2023-01-15T01:07:43;100999.09;;;-13.19;67.78
42603;BME280;28233;55.748;48.752;2023-01-15T01:09:45;100997.41;;;-13.20;67.75
42603;BME280;28233;55.748;48.752;2023-01-15T01:11:48;101005.47;;;-13.22;67.89
42603;BME280;28233;55.748;48.752;2023-01-15T01:13:52;101009.09;;;-13.23;68.00
42603;BME280;28233;55.748;48.752;2023-01-15T01:15:55;100998.78;;;-13.26;67.69
42603;BME280;28233;55.748;48.752;2023-01-15T01:17:58;101008.38;;;-13.25;67.76
42603;BME280;28233;55.748;48.752;2023-01-15T01:20:01;100989.75;;;-13.23;68.01
42603;BME280;28233;55.748;48.752;2023-01-15T01:22:04;100994.88;;;-13.22;68.35
42603;BME280;28233;55.748;48.752;2023-01-15T01:24:10;100979.72;;;-13.20;68.25
42603;BME280;28233;55.748;48.752;2023-01-15T01:26:13;100992.94;;;-13.20;67.92
42603;BME280;28233;55.748;48.752;2023-01-15T01:28:15;100993.09;;;-13.21;67.97
42603;BME280;28233;55.748;48.752;2023-01-15T01:30:18;100986.94;;;-13.22;67.90
42603;BME280;28233;55.748;48.752;2023-01-15T01:32:21;100986.25;;;-13.24;68.69
42603;BME280;28233;55.748;48.752;2023-01-15T01:34:24;100986.69;;;-13.28;68.32
42603;BME280;28233;55.748;48.752;2023-01-15T01:36:34;100991.66;;;-13.25;68.39
42603;BME280;28233;55.748;48.752;2023-01-15T01:38:38;100996.13;;;-13.26;68.07
42603;BME280;28233;55.748;48.752;2023-01-15T01:40:41;100995.28;;;-13.26;68.67
42603;BME280;28233;55.748;48.752;2023-01-15T01:42:44;100987.22;;;-13.25;68.68
42603;BME280;28233;55.748;48.752;2023-01-15T01:46:49;100984.88;;;-13.28;68.23
42603;BME280;28233;55.748;48.752;2023-01-15T01:48:59;100984.88;;;-13.28;68.13
42603;BME280;28233;55.748;48.752;2023-01-15T01:51:04;100977.34;;;-13.32;68.14
42603;BME280;28233;55.748;48.752;2023-01-15T01:53:13;100987.19;;;-13.34;69.03
42603;BME280;28233;55.748;48.752;2023-01-15T01:55:20;100992.50;;;-13.34;68.49
42603;BME280;28233;55.748;48.752;2023-01-15T01:57:23;100988.75;;;-13.32;68.67
42603;BME280;28233;55.748;48.752;2023-01-15T01:59:27;100982.03;;;-13.36;68.38
42603;BME280;28233;55.748;48.752;2023-01-15T02:01:30;100984.69;;;-13.36;68.96
42603;BME280;28233;55.748;48.752;2023-01-15T02:03:36;100983.72;;;-13.35;68.77
42603;BME280;28233;55.748;48.752;2023-01-15T02:05:45;100977.84;;;-13.38;68.71
42603;BME280;28233;55.748;48.752;2023-01-15T02:07:48;100981.16;;;-13.46;68.87
42603;BME280;28233;55.748;48.752;2023-01-15T02:09:51;100978.50;;;-13.46;68.54
42603;BME280;28233;55.748;48.752;2023-01-15T02:11:56;100993.38;;;-13.45;69.00
42603;BME280;28233;55.748;48.752;2023-01-15T02:14:09;100991.72;;;-13.46;69.21
42603;BME280;28233;55.748;48.752;2023-01-15T02:16:47;100990.19;;;-13.49;69.11
42603;BME280;28233;55.748;48.752;2023-01-15T02:21:18;100982.13;;;-13.47;69.58
42603;BME280;28233;55.748;48.752;2023-01-15T02:23:38;100975.88;;;-13.46;69.34
42603;BME280;28233;55.748;48.752;2023-01-15T02:28:31;100972.19;;;-13.55;69.25
42603;BME280;28233;55.748;48.752;2023-01-15T02:30:42;100959.34;;;-13.59;69.15
42603;BME280;28233;55.748;48.752;2023-01-15T02:32:57;100974.13;;;-13.57;69.73
42603;BME280;28233;55.748;48.752;2023-01-15T02:35:06;100968.25;;;-13.60;69.80
42603;BME280;28233;55.748;48.752;2023-01-15T02:37:12;100969.81;;;-13.58;70.50
42603;BME280;28233;55.748;48.752;2023-01-15T02:39:18;100964.63;;;-13.59;69.90
42603;BME280;28233;55.748;48.752;2023-01-15T02:41:27;100968.59;;;-13.54;70.24
42603;BME280;28233;55.748;48.752;2023-01-15T02:43:33;100961.16;;;-13.60;69.65
42603;BME280;28233;55.748;48.752;2023-01-15T02:45:38;100972.44;;;-13.58;70.45
42603;BME280;28233;55.748;48.752;2023-01-15T02:47:43;100968.59;;;-13.54;70.08
42603;BME280;28233;55.748;48.752;2023-01-15T02:49:49;100969.94;;;-13.59;69.73
42603;BME280;28233;55.748;48.752;2023-01-15T02:52:09;100974.97;;;-13.56;70.26
42603;BME280;28233;55.748;48.752;2023-01-15T02:54:16;100974.81;;;-13.55;70.20
42603;BME280;28233;55.748;48.752;2023-01-15T02:56:23;100970.63;;;-13.57;69.91
42603;BME280;28233;55.748;48.752;2023-01-15T02:58:32;100967.88;;;-13.56;70.32
42603;BME280;28233;55.748;48.752;2023-01-15T03:00:40;100978.31;;;-13.54;69.67
42603;BME280;28233;55.748;48.752;2023-01-15T03:02:50;100974.78;;;-13.65;69.66
42603;BME280;28233;55.748;48.752;2023-01-15T03:05:01;100979.09;;;-13.64;69.57
42603;BME280;28233;55.748;48.752;2023-01-15T03:07:21;100993.97;;;-13.63;69.68
42603;BME280;28233;55.748;48.752;2023-01-15T03:09:27;100978.25;;;-13.64;70.10
42603;BME280;28233;55.748;48.752;2023-01-15T03:11:35;100974.66;;;-13.63;70.13
42603;BME280;28233;55.748;48.752;2023-01-15T03:13:44;100985.34;;;-13.65;69.96
42603;BME280;28233;55.748;48.752;2023-01-15T03:15:57;100984.78;;;-13.68;70.08
42603;BME280;28233;55.748;48.752;2023-01-15T03:18:20;100990.75;;;-13.66;70.21
42603;BME280;28233;55.748;48.752;2023-01-15T03:20:28;100987.53;;;-13.70;70.27
42603;BME280;28233;55.748;48.752;2023-01-15T03:22:37;100995.19;;;-13.67;70.40
42603;BME280;28233;55.748;48.752;2023-01-15T03:24:45;100995.47;;;-13.70;70.25
42603;BME280;28233;55.748;48.752;2023-01-15T03:26:48;100987.91;;;-13.74;71.01
42603;BME280;28233;55.748;48.752;2023-01-15T03:28:52;100988.63;;;-13.72;71.02
42603;BME280;28233;55.748;48.752;2023-01-15T03:30:55;100990.19;;;-13.70;71.12
42603;BME280;28233;55.748;48.752;2023-01-15T03:32:58;100989.19;;;-13.69;71.16
42603;BME280;28233;55.748;48.752;2023-01-15T03:35:01;100986.72;;;-13.70;70.92
42603;BME280;28233;55.748;48.752;2023-01-15T03:37:05;100979.28;;;-13.76;71.14
42603;BME280;28233;55.748;48.752;2023-01-15T03:39:08;100984.56;;;-13.76;71.54
42603;BME280;28233;55.748;48.752;2023-01-15T03:41:31;100983.47;;;-13.74;71.37
42603;BME280;28233;55.748;48.752;2023-01-15T03:45:49;100980.00;;;-13.74;71.26
42603;BME280;28233;55.748;48.752;2023-01-15T03:48:13;100984.91;;;-13.70;71.69
42603;BME280;28233;55.748;48.752;2023-01-15T03:50:22;100986.81;;;-13.72;71.55
42603;BME280;28233;55.748;48.752;2023-01-15T03:52:43;100984.56;;;-13.76;71.55
42603;BME280;28233;55.748;48.752;2023-01-15T03:54:52;100989.72;;;-13.75;71.89
42603;BME280;28233;55.748;48.752;2023-01-15T03:57:14;100992.94;;;-13.71;72.18
42603;BME280;28233;55.748;48.752;2023-01-15T03:59:28;100986.72;;;-13.70;71.92
42603;BME280;28233;55.748;48.752;2023-01-15T04:01:37;100991.53;;;-13.75;71.49
42603;BME280;28233;55.748;48.752;2023-01-15T04:03:41;100986.09;;;-13.74;71.80
42603;BME280;28233;55.748;48.752;2023-01-15T04:05:46;100985.28;;;-13.74;71.28
42603;BME280;28233;55.748;48.752;2023-01-15T04:07:50;100987.81;;;-13.73;71.75
42603;BME280;28233;55.748;48.752;2023-01-15T04:09:54;100987.22;;;-13.76;71.46
42603;BME280;28233;55.748;48.752;2023-01-15T04:11:58;100997.06;;;-13.78;72.02
42603;BME280;28233;55.748;48.752;2023-01-15T04:14:01;100995.97;;;-13.76;71.55
42603;BME280;28233;55.748;48.752;2023-01-15T04:16:04;100994.75;;;-13.72;71.80
42603;BME280;28233;55.748;48.752;2023-01-15T04:18:07;101000.03;;;-13.72;72.36
42603;BME280;28233;55.748;48.752;2023-01-15T04:20:10;100994.63;;;-13.70;72.11
42603;BME280;28233;55.748;48.752;2023-01-15T04:22:13;101001.97;;;-13.74;71.45
42603;BME280;28233;55.748;48.752;2023-01-15T04:24:16;100995.97;;;-13.76;71.35
42603;BME280;28233;55.748;48.752;2023-01-15T04:26:19;101001.13;;;-13.74;72.17
42603;BME280;28233;55.748;48.752;2023-01-15T04:28:22;101004.28;;;-13.80;71.81
42603;BME280;28233;55.748;48.752;2023-01-15T04:30:24;101011.97;;;-13.77;71.74
42603;BME280;28233;55.748;48.752;2023-01-15T04:32:27;101010.59;;;-13.72;72.51
42603;BME280;28233;55.748;48.752;2023-01-15T04:34:30;101001.97;;;-13.74;72.04
42603;BME280;28233;55.748;48.752;2023-01-15T04:36:32;101008.94;;;-13.73;72.27
42603;BME280;28233;55.748;48.752;2023-01-15T04:38:38;101014.47;;;-13.76;71.81
42603;BME280;28233;55.748;48.752;2023-01-15T04:40:41;101016.41;;;-13.78;72.20
42603;BME280;28233;55.748;48.752;2023-01-15T04:43:02;101002.16;;;-13.87;72.67
42603;BME280;28233;55.748;48.752;2023-01-15T04:45:24;101010.91;;;-13.86;72.47
42603;BME280;28233;55.748;48.752;2023-01-15T04:47:29;101012.41;;;-13.93;73.06
42603;BME280;28233;55.748;48.752;2023-01-15T04:49:32;101006.84;;;-13.90;73.11
42603;BME280;28233;55.748;48.752;2023-01-15T04:51:35;101000.63;;;-13.89;73.58
42603;BME280;28233;55.748;48.752;2023-01-15T04:53:38;101004.81;;;-13.87;73.10
42603;BME280;28233;55.748;48.752;2023-01-15T04:55:41;101003.00;;;-13.86;73.07
42603;BME280;28233;55.748;48.752;2023-01-15T04:57:44;101007.56;;;-13.88;72.57
42603;BME280;28233;55.748;48.752;2023-01-15T04:59:46;101005.53;;;-13.85;72.74
42603;BME280;28233;55.748;48.752;2023-01-15T05:01:50;101011.63;;;-13.84;73.48
42603;BME280;28233;55.748;48.752;2023-01-15T05:04:05;101014.72;;;-13.79;72.92
42603;BME280;28233;55.748;48.752;2023-01-15T05:06:09;101010.88;;;-13.75;73.22
42603;BME280;28233;55.748;48.752;2023-01-15T05:08:11;101012.19;;;-13.80;72.14
42603;BME280;28233;55.748;48.752;2023-01-15T05:10:14;101017.09;;;-13.76;72.82
42603;BME280;28233;55.748;48.752;2023-01-15T05:12:17;101010.88;;;-13.75;72.60
42603;BME280;28233;55.748;48.752;2023-01-15T05:14:20;101016.28;;;-13.76;72.32
42603;BME280;28233;55.748;48.752;2023-01-15T05:16:26;101009.19;;;-13.76;72.96
42603;BME280;28233;55.748;48.752;2023-01-15T05:18:29;101011.59;;;-13.73;72.37
42603;BME280;28233;55.748;48.752;2023-01-15T05:20:35;101003.19;;;-13.78;73.07
42603;BME280;28233;55.748;48.752;2023-01-15T05:22:38;101000.53;;;-13.78;72.54
42603;BME280;28233;55.748;48.752;2023-01-15T05:24:41;101011.00;;;-13.76;72.45
42603;BME280;28233;55.748;48.752;2023-01-15T05:26:44;101005.72;;;-13.76;72.61
42603;BME280;28233;55.748;48.752;2023-01-15T05:28:48;101008.47;;;-13.78;72.16
42603;BME280;28233;55.748;48.752;2023-01-15T05:30:51;101002.22;;;-13.77;72.80
42603;BME280;28233;55.748;48.752;2023-01-15T05:32:53;101004.94;;;-13.67;72.72
42603;BME280;28233;55.748;48.752;2023-01-15T05:34:56;101002.41;;;-13.69;72.36
42603;BME280;28233;55.748;48.752;2023-01-15T05:36:59;101009.66;;;-13.71;72.14
42603;BME280;28233;55.748;48.752;2023-01-15T05:39:02;101006.31;;;-13.73;72.12
42603;BME280;28233;55.748;48.752;2023-01-15T05:41:07;101008.81;;;-13.71;72.72
42603;BME280;28233;55.748;48.752;2023-01-15T05:43:30;100998.81;;;-13.68;72.55
42603;BME280;28233;55.748;48.752;2023-01-15T05:45:34;100989.78;;;-13.65;72.65
42603;BME280;28233;55.748;48.752;2023-01-15T05:47:37;100999.97;;;-13.60;71.80
42603;BME280;28233;55.748;48.752;2023-01-15T05:49:40;100992.78;;;-13.58;72.55
42603;BME280;28233;55.748;48.752;2023-01-15T05:51:43;101004.28;;;-13.59;72.07
42603;BME280;28233;55.748;48.752;2023-01-15T05:53:46;100987.72;;;-13.62;72.71
42603;BME280;28233;55.748;48.752;2023-01-15T05:55:48;101004.88;;;-13.56;71.86
42603;BME280;28233;55.748;48.752;2023-01-15T05:57:51;101002.81;;;-13.52;72.42
42603;BME280;28233;55.748;48.752;2023-01-15T05:59:54;101004.94;;;-13.46;72.10
42603;BME280;28233;55.748;48.752;2023-01-15T06:01:58;101005.50;;;-13.43;72.62
42603;BME280;28233;55.748;48.752;2023-01-15T06:04:02;101004.56;;;-13.42;72.31
42603;BME280;28233;55.748;48.752;2023-01-15T06:06:06;101001.19;;;-13.44;71.17
42603;BME280;28233;55.748;48.752;2023-01-15T06:08:12;101009.72;;;-13.40;71.49
42603;BME280;28233;55.748;48.752;2023-01-15T06:10:15;101005.38;;;-13.41;71.18
42603;BME280;28233;55.748;48.752;2023-01-15T06:12:18;101006.22;;;-13.41;71.34
42603;BME280;28233;55.748;48.752;2023-01-15T06:14:21;100999.16;;;-13.40;71.30
42603;BME280;28233;55.748;48.752;2023-01-15T06:16:24;101008.34;;;-13.34;70.82
42603;BME280;28233;55.748;48.752;2023-01-15T06:18:27;101003.19;;;-13.36;70.21
42603;BME280;28233;55.748;48.752;2023-01-15T06:20:30;100999.59;;;-13.35;70.64
42603;BME280;28233;55.748;48.752;2023-01-15T06:22:33;100995.00;;;-13.33;70.64
42603;BME280;28233;55.748;48.752;2023-01-15T06:24:36;100995.06;;;-13.44;70.08
42603;BME280;28233;55.748;48.752;2023-01-15T06:26:39;100996.69;;;-13.32;70.20
42603;BME280;28233;55.748;48.752;2023-01-15T06:28:42;100993.91;;;-13.30;70.26
42603;BME280;28233;55.748;48.752;2023-01-15T06:30:44;101001.97;;;-13.22;70.54
42603;BME280;28233;55.748;48.752;2023-01-15T06:32:47;101000.63;;;-13.16;70.11
42603;BME280;28233;55.748;48.752;2023-01-15T06:34:50;100997.59;;;-13.12;70.54
42603;BME280;28233;55.748;48.752;2023-01-15T06:36:53;101003.56;;;-13.10;70.87
42603;BME280;28233;55.748;48.752;2023-01-15T06:38:55;101006.09;;;-13.08;69.65
42603;BME280;28233;55.748;48.752;2023-01-15T06:41:03;100993.25;;;-13.13;69.64
42603;BME280;28233;55.748;48.752;2023-01-15T06:43:08;100988.56;;;-13.09;69.84
42603;BME280;28233;55.748;48.752;2023-01-15T06:45:40;100977.66;;;-13.16;69.78
42603;BME280;28233;55.748;48.752;2023-01-15T06:48:01;100990.63;;;-13.13;69.36
42603;BME280;28233;55.748;48.752;2023-01-15T06:50:04;100988.41;;;-13.08;69.24
42603;BME280;28233;55.748;48.752;2023-01-15T06:52:07;100996.94;;;-13.04;69.08
42603;BME280;28233;55.748;48.752;2023-01-15T06:54:09;100987.75;;;-13.00;69.22
42603;BME280;28233;55.748;48.752;2023-01-15T06:56:14;101002.38;;;-12.96;68.60
42603;BME280;28233;55.748;48.752;2023-01-15T06:58:16;100993.50;;;-12.95;69.47
42603;BME280;28233;55.748;48.752;2023-01-15T07:00:19;101007.56;;;-12.94;68.60
42603;BME280;28233;55.748;48.752;2023-01-15T07:02:22;100999.31;;;-13.01;68.27
42603;BME280;28233;55.748;48.752;2023-01-15T07:04:25;101003.78;;;-12.92;69.89
42603;BME280;28233;55.748;48.752;2023-01-15T07:06:28;101004.38;;;-12.88;68.76
42603;BME280;28233;55.748;48.752;2023-01-15T07:08:31;101010.81;;;-12.81;68.74
42603;BME280;28233;55.748;48.752;2023-01-15T07:10:34;101007.19;;;-12.80;68.27
42603;BME280;28233;55.748;48.752;2023-01-15T07:12:37;101004.66;;;-12.82;67.96
42603;BME280;28233;55.748;48.752;2023-01-15T07:14:40;101010.97;;;-12.73;68.48
42603;BME280;28233;55.748;48.752;2023-01-15T07:16:43;101027.16;;;-12.66;68.39
42603;BME280;28233;55.748;48.752;2023-01-15T07:18:45;101004.16;;;-12.66;68.48
42603;BME280;28233;55.748;48.752;2023-01-15T07:20:48;101006.53;;;-12.63;68.25
42603;BME280;28233;55.748;48.752;2023-01-15T07:22:51;101007.00;;;-12.58;68.25
42603;BME280;28233;55.748;48.752;2023-01-15T07:24:55;101016.91;;;-12.50;67.96
42603;BME280;28233;55.748;48.752;2023-01-15T07:26:58;101016.78;;;-12.48;68.05
42603;BME280;28233;55.748;48.752;2023-01-15T07:29:01;101015.78;;;-12.47;67.93
42603;BME280;28233;55.748;48.752;2023-01-15T07:31:04;101003.38;;;-12.47;67.38
42603;BME280;28233;55.748;48.752;2023-01-15T07:33:07;101015.69;;;-12.36;68.06
42603;BME280;28233;55.748;48.752;2023-01-15T07:35:10;101009.56;;;-12.37;67.27
42603;BME280;28233;55.748;48.752;2023-01-15T07:37:13;101008.69;;;-12.37;67.30
42603;BME280;28233;55.748;48.752;2023-01-15T07:39:17;101005.22;;;-12.28;67.48
42603;BME280;28233;55.748;48.752;2023-01-15T07:41:21;101004.97;;;-12.25;67.49
42603;BME280;28233;55.748;48.752;2023-01-15T07:43:47;100994.91;;;-12.21;67.16
42603;BME280;28233;55.748;48.752;2023-01-15T07:46:11;100987.25;;;-12.24;67.04
42603;BME280;28233;55.748;48.752;2023-01-15T07:48:44;100999.38;;;-12.22;67.96
42603;BME280;28233;55.748;48.752;2023-01-15T07:51:36;100999.41;;;-12.12;67.76
42603;BME280;28233;55.748;48.752;2023-01-15T07:53:55;101000.78;;;-12.18;67.61
42603;BME280;28233;55.748;48.752;2023-01-15T07:56:09;101003.97;;;-12.24;67.53
42603;BME280;28233;55.748;48.752;2023-01-15T07:58:13;101008.16;;;-12.21;67.95
42603;BME280;28233;55.748;48.752;2023-01-15T08:00:20;101011.81;;;-12.13;67.72
42603;BME280;28233;55.748;48.752;2023-01-15T08:02:25;100993.09;;;-12.11;67.19
42603;BME280;28233;55.748;48.752;2023-01-15T08:04:29;100994.09;;;-12.12;67.22
42603;BME280;28233;55.748;48.752;2023-01-15T08:06:34;101009.72;;;-11.99;68.21
42603;BME280;28233;55.748;48.752;2023-01-15T08:08:37;101001.22;;;-12.03;67.02
42603;BME280;28233;55.748;48.752;2023-01-15T08:10:40;100996.03;;;-11.95;66.25
42603;BME280;28233;55.748;48.752;2023-01-15T08:13:03;101000.25;;;-11.92;66.64
42603;BME280;28233;55.748;48.752;2023-01-15T08:15:25;100992.16;;;-11.90;66.44
42603;BME280;28233;55.748;48.752;2023-01-15T08:17:29;100991.19;;;-11.89;66.62
42603;BME280;28233;55.748;48.752;2023-01-15T08:19:31;100986.72;;;-11.89;66.89
42603;BME280;28233;55.748;48.752;2023-01-15T08:21:34;100995.19;;;-11.85;67.30
42603;BME280;28233;55.748;48.752;2023-01-15T08:23:37;100981.66;;;-11.82;67.07
42603;BME280;28233;55.748;48.752;2023-01-15T08:25:41;100980.53;;;-11.80;65.96
42603;BME280;28233;55.748;48.752;2023-01-15T08:27:45;100987.09;;;-11.74;66.56
42603;BME280;28233;55.748;48.752;2023-01-15T08:29:48;100980.41;;;-11.68;66.04
42603;BME280;28233;55.748;48.752;2023-01-15T08:31:55;100981.22;;;-11.68;66.44
42603;BME280;28233;55.748;48.752;2023-01-15T08:34:04;100972.44;;;-11.68;65.60
42603;BME280;28233;55.748;48.752;2023-01-15T08:36:09;100980.41;;;-11.68;65.53
42603;BME280;28233;55.748;48.752;2023-01-15T08:38:12;100974.38;;;-11.61;65.82
42603;BME280;28233;55.748;48.752;2023-01-15T08:40:16;100974.91;;;-11.57;65.38
42603;BME280;28233;55.748;48.752;2023-01-15T08:42:19;100971.84;;;-11.53;65.32
42603;BME280;28233;55.748;48.752;2023-01-15T08:44:23;100970.88;;;-11.52;65.40
42603;BME280;28233;55.748;48.752;2023-01-15T08:46:26;100965.56;;;-11.52;64.97
42603;BME280;28233;55.748;48.752;2023-01-15T08:48:31;100971.84;;;-11.53;64.52
42603;BME280;28233;55.748;48.752;2023-01-15T08:50:34;100966.97;;;-11.57;64.61
42603;BME280;28233;55.748;48.752;2023-01-15T08:52:36;100983.00;;;-11.49;64.72
42603;BME280;28233;55.748;48.752;2023-01-15T08:54:40;100983.72;;;-11.57;64.69
42603;BME280;28233;55.748;48.752;2023-01-15T08:56:43;100978.66;;;-11.50;64.93
42603;BME280;28233;55.748;48.752;2023-01-15T08:58:46;100972.00;;;-11.54;64.91
42603;BME280;28233;55.748;48.752;2023-01-15T09:00:50;100961.81;;;-11.59;65.26
42603;BME280;28233;55.748;48.752;2023-01-15T09:02:52;100966.53;;;-11.53;65.15
42603;BME280;28233;55.748;48.752;2023-01-15T09:04:55;100965.84;;;-11.45;65.24
42603;BME280;28233;55.748;48.752;2023-01-15T09:06:58;100964.19;;;-11.56;65.02
42603;BME280;28233;55.748;48.752;2023-01-15T09:09:01;100964.72;;;-11.62;64.49
42603;BME280;28233;55.748;48.752;2023-01-15T09:11:05;100968.66;;;-11.56;64.35
42603;BME280;28233;55.748;48.752;2023-01-15T09:13:08;100967.41;;;-11.52;64.92
42603;BME280;28233;55.748;48.752;2023-01-15T09:15:11;100975.75;;;-11.47;65.37
42603;BME280;28233;55.748;48.752;2023-01-15T09:17:14;100965.41;;;-11.40;64.84
42603;BME280;28233;55.748;48.752;2023-01-15T09:19:17;100976.56;;;-11.37;64.53
42603;BME280;28233;55.748;48.752;2023-01-15T09:21:19;100969.44;;;-11.36;64.98
42603;BME280;28233;55.748;48.752;2023-01-15T09:23:23;100969.28;;;-11.35;64.68
42603;BME280;28233;55.748;48.752;2023-01-15T09:25:26;100968.44;;;-11.25;64.62
42603;BME280;28233;55.748;48.752;2023-01-15T09:27:28;100962.97;;;-11.14;64.22
42603;BME280;28233;55.748;48.752;2023-01-15T09:29:31;100969.94;;;-11.13;64.29
42603;BME280;28233;55.748;48.752;2023-01-15T09:31:34;100966.53;;;-11.06;64.13
42603;BME280;28233;55.748;48.752;2023-01-15T09:33:37;100963.34;;;-11.09;63.59
42603;BME280;28233;55.748;48.752;2023-01-15T09:35:41;100964.47;;;-11.12;63.68
42603;BME280;28233;55.748;48.752;2023-01-15T09:37:49;100969.88;;;-11.03;63.60
42603;BME280;28233;55.748;48.752;2023-01-15T09:39:52;100959.00;;;-11.00;63.28
42603;BME280;28233;55.748;48.752;2023-01-15T09:42:02;100965.38;;;-10.93;63.22
42603;BME280;28233;55.748;48.752;2023-01-15T09:46:38;100960.25;;;-11.04;62.74
42603;BME280;28233;55.748;48.752;2023-01-15T09:51:22;100952.00;;;-11.01;63.41
42603;BME280;28233;55.748;48.752;2023-01-15T09:56:18;100948.91;;;-10.97;62.95
42603;BME280;28233;55.748;48.752;2023-01-15T09:58:37;100956.19;;;-10.99;62.76
42603;BME280;28233;55.748;48.752;2023-01-15T10:00:44;100951.44;;;-10.95;63.17
42603;BME280;28233;55.748;48.752;2023-01-15T10:02:58;100955.03;;;-10.96;62.71
42603;BME280;28233;55.748;48.752;2023-01-15T10:07:26;100955.09;;;-11.06;63.13
42603;BME280;28233;55.748;48.752;2023-01-15T10:09:34;100944.47;;;-11.06;63.37
42603;BME280;28233;55.748;48.752;2023-01-15T10:11:46;100944.72;;;-10.99;62.91
42603;BME280;28233;55.748;48.752;2023-01-15T10:14:18;100955.44;;;-10.91;63.20
42603;BME280;28233;55.748;48.752;2023-01-15T10:16:27;100954.16;;;-10.87;63.08
42603;BME280;28233;55.748;48.752;2023-01-15T10:18:30;100951.81;;;-10.90;63.19
42603;BME280;28233;55.748;48.752;2023-01-15T10:23:07;100948.13;;;-11.07;63.13
42603;BME280;28233;55.748;48.752;2023-01-15T10:25:23;100943.25;;;-11.12;62.93
42603;BME280;28233;55.748;48.752;2023-01-15T10:27:29;100946.44;;;-11.08;64.00
42603;BME280;28233;55.748;48.752;2023-01-15T10:29:42;100929.69;;;-11.09;63.09
42603;BME280;28233;55.748;48.752;2023-01-15T10:31:51;100937.25;;;-11.14;63.39
42603;BME280;28233;55.748;48.752;2023-01-15T10:36:23;100928.34;;;-11.22;63.74
42603;BME280;28233;55.748;48.752;2023-01-15T10:41:19;100927.91;;;-11.18;63.80
42603;BME280;28233;55.748;48.752;2023-01-15T10:46:11;100912.56;;;-11.24;64.07
42603;BME280;28233;55.748;48.752;2023-01-15T10:48:33;100911.28;;;-11.20;64.25
42603;BME280;28233;55.748;48.752;2023-01-15T10:50:40;100921.75;;;-11.18;64.32
42603;BME280;28233;55.748;48.752;2023-01-15T10:53:34;100916.88;;;-11.23;63.60
42603;BME280;28233;55.748;48.752;2023-01-15T10:55:24;100906.28;;;-11.23;64.23
42603;BME280;28233;55.748;48.752;2023-01-15T10:57:50;100905.16;;;-11.20;65.09
42603;BME280;28233;55.748;48.752;2023-01-15T11:00:11;100903.94;;;-11.26;63.89
42603;BME280;28233;55.748;48.752;2023-01-15T11:04:36;100899.31;;;-11.34;64.22
42603;BME280;28233;55.748;48.752;2023-01-15T11:06:39;100902.25;;;-11.27;64.78
42603;BME280;28233;55.748;48.752;2023-01-15T11:08:54;100907.16;;;-11.32;63.96
42603;BME280;28233;55.748;48.752;2023-01-15T11:11:37;100913.53;;;-11.25;64.11
42603;BME280;28233;55.748;48.752;2023-01-15T11:14:00;100910.19;;;-11.27;64.39
42603;BME280;28233;55.748;48.752;2023-01-15T11:16:24;100918.81;;;-11.15;65.34
42603;BME280;28233;55.748;48.752;2023-01-15T11:18:46;100915.91;;;-11.22;63.93